Time;durP1;ratioP1;P1;durP2;ratioP2;P2;SDS_P1;SDS_P2;PMS_P1;PMS_P2;Temp;Humidity;BMP_temperature;BMP_pressure;BME280_temperature;BME280_humidity;BME280_pressure;Samples;Min_cycle;Max_cycle;Signal;HPM_P1;HPM_P2
2024/04/18 00:01:16;;;;;;;5.87;5.23;;;;;;;;;;5599280;25;20956;-78
2024/04/18 00:03:43;;;;;;;5.80;5.30;;;;;;;;;;5590221;25;20633;-78
2024/04/18 00:06:11;;;;;;;6.57;5.33;;;;;;;;;;5601035;25;21310;-78
2024/04/18 00:08:36;;;;;;;5.90;5.40;;;;;;;;;;5552056;25;20461;-78
2024/04/18 00:11:04;;;;;;;6.13;5.70;;;;;;;;;;5590637;25;20509;-78
2024/04/18 00:13:32;;;;;;;6.93;6.37;;;;;;;;;;5585383;25;20235;-77
2024/04/18 00:16:00;;;;;;;5.83;5.33;;;;;;;;;;5600544;25;20470;-77
2024/04/18 00:18:26;;;;;;;5.13;4.73;;;;;;;;;;5597609;25;21149;-78
2024/04/18 00:20:54;;;;;;;4.97;4.57;;;;;;;;;;5597276;25;20992;-78
2024/04/18 00:23:19;;;;;;;6.00;5.07;;;;;;;;;;5600177;25;20226;-78
2024/04/18 00:25:47;;;;;;;5.83;5.37;;;;;;;;;;5591943;25;20463;-78
2024/04/18 00:28:13;;;;;;;5.77;5.37;;;;;;;;;;5592190;25;20234;-78
2024/04/18 00:30:44;;;;;;;5.73;4.90;;;;;;;;;;5582999;25;20578;-78
2024/04/18 00:33:09;;;;;;;7.40;6.70;;;;;;;;;;5576506;25;20226;-78
2024/04/18 00:35:37;;;;;;;6.77;6.27;;;;;;;;;;5588212;25;20541;-77
2024/04/18 00:38:03;;;;;;;5.87;5.37;;;;;;;;;;5596741;25;20238;-77
2024/04/18 00:40:31;;;;;;;5.87;5.37;;;;;;;;;;5601299;25;20510;-78
2024/04/18 00:42:56;;;;;;;5.33;4.93;;;;;;;;;;5582296;25;20223;-78
2024/04/18 00:45:25;;;;;;;6.27;5.10;;;;;;;;;;5592597;25;20542;-79
2024/04/18 00:47:53;;;;;;;5.30;4.83;;;;;;;;;;5582180;25;20230;-78
2024/04/18 00:50:21;;;;;;;5.97;5.47;;;;;;;;;;5589056;25;20462;-78
2024/04/18 00:52:47;;;;;;;6.23;5.63;;;;;;;;;;5588989;25;20545;-79
2024/04/18 00:55:15;;;;;;;6.50;6.00;;;;;;;;;;5580142;25;21215;-78
2024/04/18 00:57:41;;;;;;;5.20;4.80;;;;;;;;;;5591184;25;20265;-76
2024/04/18 01:00:09;;;;;;;5.20;4.80;;;;;;;;;;5576195;25;20464;-77
2024/04/18 01:02:35;;;;;;;6.10;5.50;;;;;;;;;;5594947;25;20606;-76
2024/04/18 01:05:06;;;;;;;6.00;5.40;;;;;;;;;;5596590;25;20467;-79
2024/04/18 01:07:31;;;;;;;5.93;5.43;;;;;;;;;;5576828;25;20235;-79
2024/04/18 01:09:59;;;;;;;5.93;5.43;;;;;;;;;;5574720;25;20461;-79
2024/04/18 01:12:24;;;;;;;5.90;5.30;;;;;;;;;;5578548;25;20230;-79
2024/04/18 01:14:52;;;;;;;5.83;5.33;;;;;;;;;;5589628;25;20450;-79
2024/04/18 01:17:18;;;;;;;5.30;4.90;;;;;;;;;;5600208;25;20266;-79
2024/04/18 01:19:46;;;;;;;5.70;5.30;;;;;;;;;;5591486;25;20509;-79
2024/04/18 01:22:14;;;;;;;6.90;6.30;;;;;;;;;;5599283;25;20753;-78
2024/04/18 01:24:42;;;;;;;6.47;5.97;;;;;;;;;;5594600;25;21595;-79
2024/04/18 01:27:10;;;;;;;7.07;5.83;;;;;;;;;;5598580;25;20517;-78
2024/04/18 01:29:38;;;;;;;6.63;6.10;;;;;;;;;;5602570;25;20840;-79
2024/04/18 01:32:04;;;;;;;7.60;6.93;;;;;;;;;;5571062;25;20455;-79
2024/04/18 01:34:32;;;;;;;5.97;5.47;;;;;;;;;;5575526;25;20484;-79
2024/04/18 01:36:57;;;;;;;6.40;5.90;;;;;;;;;;5600257;25;20273;-78
2024/04/18 01:39:25;;;;;;;6.93;6.33;;;;;;;;;;5598282;25;20470;-78
2024/04/18 01:41:50;;;;;;;6.00;5.47;;;;;;;;;;5575908;25;20269;-78
2024/04/18 01:44:21;;;;;;;6.70;6.20;;;;;;;;;;5568977;25;20469;-77
2024/04/18 01:46:47;;;;;;;6.23;5.70;;;;;;;;;;5576702;25;20237;-78
2024/04/18 01:49:14;;;;;;;6.17;5.67;;;;;;;;;;5567613;25;20542;-78
2024/04/18 01:51:40;;;;;;;7.77;7.10;;;;;;;;;;5582267;25;20231;-77
2024/04/18 01:54:08;;;;;;;7.17;6.60;;;;;;;;;;5583078;25;20499;-76
2024/04/18 01:56:34;;;;;;;7.23;6.63;;;;;;;;;;5600878;25;20706;-77
2024/04/18 01:59:04;;;;;;;6.63;6.13;;;;;;;;;;5584021;25;20470;-78
2024/04/18 02:01:32;;;;;;;7.60;6.90;;;;;;;;;;5600862;25;20239;-79
2024/04/18 02:04:00;;;;;;;7.10;6.47;;;;;;;;;;5577882;25;20463;-79
2024/04/18 02:06:25;;;;;;;8.20;6.70;;;;;;;;;;5566404;25;20468;-79
2024/04/18 02:08:53;;;;;;;9.57;7.50;;;;;;;;;;5598550;25;20514;-78
2024/04/18 02:11:19;;;;;;;7.90;7.10;;;;;;;;;;5591170;25;20408;-78
2024/04/18 02:13:47;;;;;;;9.00;6.87;;;;;;;;;;5590428;25;21164;-78
2024/04/18 02:16:12;;;;;;;8.67;6.60;;;;;;;;;;5587236;25;20271;-78
2024/04/18 02:18:43;;;;;;;7.77;7.03;;;;;;;;;;5591756;25;20568;-78
2024/04/18 02:21:08;;;;;;;7.43;6.70;;;;;;;;;;5590519;25;20560;-78
2024/04/18 02:23:37;;;;;;;6.60;6.00;;;;;;;;;;5571072;25;20456;-78
2024/04/18 02:26:02;;;;;;;7.80;7.10;;;;;;;;;;5587055;25;20230;-79
2024/04/18 02:28:31;;;;;;;6.77;6.10;;;;;;;;;;5581653;25;20509;-77
2024/04/18 02:30:57;;;;;;;8.93;6.87;;;;;;;;;;5591110;25;20292;-77
2024/04/18 02:33:25;;;;;;;7.33;6.53;;;;;;;;;;5604018;25;20462;-77
2024/04/18 02:35:53;;;;;;;7.20;6.40;;;;;;;;;;5602640;25;20518;-77
2024/04/18 02:38:21;;;;;;;11.13;7.17;;;;;;;;;;5606377;25;20557;-77
2024/04/18 02:40:47;;;;;;;8.27;7.43;;;;;;;;;;5594150;25;20509;-77
2024/04/18 02:43:15;;;;;;;8.63;7.80;;;;;;;;;;5603018;25;21154;-77
2024/04/18 02:45:40;;;;;;;8.63;7.77;;;;;;;;;;5594942;25;20290;-77
2024/04/18 02:48:08;;;;;;;8.77;7.83;;;;;;;;;;5585717;25;20470;-77
2024/04/18 02:50:34;;;;;;;8.30;7.50;;;;;;;;;;5594026;25;20274;-77
2024/04/18 02:53:04;;;;;;;9.67;8.43;;;;;;;;;;5594885;25;20526;-77
2024/04/18 02:55:30;;;;;;;14.37;8.73;;;;;;;;;;5598521;25;20265;-77
2024/04/18 02:57:58;;;;;;;7.90;7.20;;;;;;;;;;5576418;25;20462;-78
2024/04/18 03:00:23;;;;;;;8.97;8.07;;;;;;;;;;5600622;25;20272;-78
2024/04/18 03:02:51;;;;;;;8.50;7.17;;;;;;;;;;5586875;25;20470;-78
2024/04/18 03:05:17;;;;;;;7.83;6.97;;;;;;;;;;5596586;25;20239;-77
2024/04/18 03:07:45;;;;;;;8.93;7.80;;;;;;;;;;5596603;25;20475;-76
2024/04/18 03:10:13;;;;;;;9.43;7.80;;;;;;;;;;5589409;25;20246;-76
2024/04/18 03:12:41;;;;;;;10.27;8.23;;;;;;;;;;5583363;25;20518;-76
2024/04/18 03:15:07;;;;;;;9.60;8.13;;;;;;;;;;5592681;25;20532;-77
2024/04/18 03:17:35;;;;;;;9.30;7.80;;;;;;;;;;5589164;25;20467;-77
2024/04/18 03:20:00;;;;;;;11.40;8.57;;;;;;;;;;5581277;25;20277;-78
2024/04/18 03:22:28;;;;;;;13.20;8.80;;;;;;;;;;5586810;25;20464;-78
2024/04/18 03:24:53;;;;;;;8.93;7.90;;;;;;;;;;5594736;25;20226;-78
2024/04/18 03:27:24;;;;;;;11.30;8.23;;;;;;;;;;5590623;25;20517;-77
2024/04/18 03:29:49;;;;;;;12.10;8.10;;;;;;;;;;5569937;25;20230;-77
2024/04/18 03:32:18;;;;;;;12.40;8.30;;;;;;;;;;5579814;25;21084;-77
2024/04/18 03:34:43;;;;;;;9.50;8.50;;;;;;;;;;5600791;25;20239;-78
2024/04/18 03:37:11;;;;;;;9.40;7.90;;;;;;;;;;5594098;25;20462;-77
2024/04/18 03:39:39;;;;;;;13.17;7.70;;;;;;;;;;5590014;25;20235;-78
2024/04/18 03:42:08;;;;;;;10.77;8.47;;;;;;;;;;5587855;25;20462;-78
2024/04/18 03:44:40;;;;;;;16.33;9.37;;;;;;;;;;5585604;25;20470;-78
2024/04/18 03:47:08;;;;;;;11.30;8.73;;;;;;;;;;5593372;25;20500;-78
2024/04/18 03:49:36;;;;;;;9.80;8.43;;;;;;;;;;5581030;25;20469;-77
2024/04/18 03:52:02;;;;;;;12.23;9.30;;;;;;;;;;5597773;25;20462;-77
2024/04/18 03:54:30;;;;;;;13.80;8.90;;;;;;;;;;5600285;25;20464;-79
2024/04/18 03:56:55;;;;;;;16.10;8.50;;;;;;;;;;5600454;25;20234;-79
2024/04/18 03:59:23;;;;;;;13.87;9.50;;;;;;;;;;5571765;25;20519;-79
2024/04/18 04:01:51;;;;;;;9.87;8.17;;;;;;;;;;5589635;25;20293;-79
2024/04/18 04:04:19;;;;;;;12.83;7.70;;;;;;;;;;5583081;25;20470;-78
2024/04/18 04:06:45;;;;;;;12.47;9.27;;;;;;;;;;5572903;25;20446;-78
2024/04/18 04:09:13;;;;;;;13.90;8.83;;;;;;;;;;5594377;25;20518;-79
2024/04/18 04:11:38;;;;;;;9.27;8.07;;;;;;;;;;5598563;25;20265;-78
2024/04/18 04:14:09;;;;;;;10.67;8.53;;;;;;;;;;5589689;25;20487;-77
2024/04/18 04:16:34;;;;;;;9.40;8.23;;;;;;;;;;5582063;25;20331;-77
2024/04/18 04:19:05;;;;;;;12.10;8.47;;;;;;;;;;5583389;25;20479;-77
2024/04/18 04:21:31;;;;;;;11.87;8.43;;;;;;;;;;5571422;25;20243;-77
2024/04/18 04:23:59;;;;;;;9.57;7.93;;;;;;;;;;5582356;25;20518;-77
2024/04/18 04:26:27;;;;;;;12.83;8.53;;;;;;;;;;5603439;25;20462;-78
2024/04/18 04:28:55;;;;;;;12.27;8.60;;;;;;;;;;5600486;25;20548;-79
2024/04/18 04:31:20;;;;;;;15.50;8.00;;;;;;;;;;5591164;25;20518;-79
2024/04/18 04:33:48;;;;;;;11.33;8.90;;;;;;;;;;5554712;25;20522;-80
2024/04/18 04:36:16;;;;;;;10.47;8.70;;;;;;;;;;5571383;25;20250;-79
2024/04/18 04:38:45;;;;;;;8.30;7.40;;;;;;;;;;5582015;25;20538;-79
2024/04/18 04:41:10;;;;;;;13.03;8.80;;;;;;;;;;5583187;25;20513;-78
2024/04/18 04:43:38;;;;;;;11.00;8.10;;;;;;;;;;5589584;25;20826;-78
2024/04/18 04:46:04;;;;;;;11.00;9.60;;;;;;;;;;5597078;25;20639;-78
2024/04/18 04:48:32;;;;;;;10.60;8.60;;;;;;;;;;5596513;25;20507;-78
2024/04/18 04:50:58;;;;;;;12.90;10.03;;;;;;;;;;5594521;25;20266;-78
2024/04/18 04:53:28;;;;;;;12.63;8.40;;;;;;;;;;5596766;25;20458;-78
2024/04/18 04:55:54;;;;;;;9.20;7.43;;;;;;;;;;5585958;25;20581;-79
2024/04/18 04:58:22;;;;;;;11.70;8.50;;;;;;;;;;5590582;25;20481;-79
2024/04/18 05:00:48;;;;;;;11.83;9.73;;;;;;;;;;5598790;25;20230;-77
2024/04/18 05:03:16;;;;;;;13.10;9.53;;;;;;;;;;5576292;25;21329;-79
2024/04/18 05:05:41;;;;;;;19.57;10.00;;;;;;;;;;5589820;25;20273;-80
2024/04/18 05:08:09;;;;;;;14.70;9.57;;;;;;;;;;5592821;25;20458;-81
2024/04/18 05:10:43;;;;;;;13.37;10.97;;;;;;;;;;5571848;25;20620;-80
2024/04/18 05:13:08;;;;;;;21.50;11.50;;;;;;;;;;5589647;25;20464;-79
2024/04/18 05:15:37;;;;;;;14.90;12.00;;;;;;;;;;5583825;25;20559;-77
2024/04/18 05:18:03;;;;;;;13.73;11.23;;;;;;;;;;5597841;25;20666;-78
2024/04/18 05:20:31;;;;;;;13.93;11.40;;;;;;;;;;5578111;25;20472;-78
2024/04/18 05:22:56;;;;;;;13.00;10.20;;;;;;;;;;5593837;25;20539;-80
2024/04/18 05:25:25;;;;;;;14.57;11.00;;;;;;;;;;5592134;25;20466;-81
2024/04/18 05:28:03;;;;;;;10.80;9.20;;;;;;;;;;5591066;25;20723;-78
2024/04/18 05:33:16;;;;;;;12.37;8.93;;;;;;;;;;5597424;25;20518;-79
2024/04/18 05:35:44;;;;;;;8.70;7.80;;;;;;;;;;5586403;25;20545;-78
2024/04/18 05:38:12;;;;;;;10.77;9.70;;;;;;;;;;5584305;25;20470;-76
2024/04/18 05:40:40;;;;;;;9.80;8.93;;;;;;;;;;5560100;25;21076;-76
2024/04/18 05:43:11;;;;;;;9.97;8.90;;;;;;;;;;5586441;25;20474;-76
2024/04/18 05:45:39;;;;;;;10.30;8.90;;;;;;;;;;5577401;25;20463;-76
2024/04/18 05:48:07;;;;;;;11.20;10.20;;;;;;;;;;5589029;25;20502;-77
2024/04/18 05:50:35;;;;;;;10.60;9.77;;;;;;;;;;5596479;25;20530;-76
2024/04/18 05:53:03;;;;;;;10.73;9.83;;;;;;;;;;5567552;25;20453;-75
2024/04/18 05:55:31;;;;;;;10.33;9.33;;;;;;;;;;5572375;25;20465;-77
2024/04/18 05:57:59;;;;;;;11.07;10.20;;;;;;;;;;5599503;25;20524;-75
2024/04/18 06:00:29;;;;;;;10.87;9.80;;;;;;;;;;5594042;25;20458;-76
2024/04/18 06:02:58;;;;;;;11.23;10.17;;;;;;;;;;5583674;25;21292;-76
2024/04/18 06:05:26;;;;;;;11.30;10.30;;;;;;;;;;5586882;25;20510;-77
2024/04/18 06:07:54;;;;;;;8.00;7.40;;;;;;;;;;5596799;25;20553;-79
2024/04/18 06:10:22;;;;;;;8.73;7.97;;;;;;;;;;5565167;25;20567;-78
2024/04/18 06:12:50;;;;;;;8.27;7.47;;;;;;;;;;5584079;25;20524;-77
2024/04/18 06:15:19;;;;;;;8.17;7.37;;;;;;;;;;5577137;25;20471;-79
2024/04/18 06:17:49;;;;;;;12.00;7.90;;;;;;;;;;5588690;25;20530;-77
2024/04/18 06:20:17;;;;;;;13.30;7.27;;;;;;;;;;5570671;25;20569;-78
2024/04/18 06:22:45;;;;;;;9.93;9.03;;;;;;;;;;5580513;25;20462;-77
2024/04/18 06:25:15;;;;;;;10.40;9.17;;;;;;;;;;5578026;25;20460;-77
2024/04/18 06:27:43;;;;;;;10.00;9.10;;;;;;;;;;5581066;25;20448;-77
2024/04/18 06:30:12;;;;;;;9.77;9.07;;;;;;;;;;5569338;25;20467;-76
2024/04/18 06:32:40;;;;;;;9.60;8.80;;;;;;;;;;5577663;25;20451;-77
2024/04/18 06:35:10;;;;;;;8.87;7.93;;;;;;;;;;5574287;25;20471;-76
2024/04/18 06:37:38;;;;;;;9.13;8.23;;;;;;;;;;5581828;25;21024;-77
2024/04/18 06:40:07;;;;;;;9.50;8.70;;;;;;;;;;5576470;25;20447;-76
2024/04/18 06:42:34;;;;;;;9.90;8.90;;;;;;;;;;5578510;25;20454;-77
2024/04/18 06:45:03;;;;;;;9.60;8.80;;;;;;;;;;5581981;25;21443;-77
2024/04/18 06:47:31;;;;;;;12.80;9.50;;;;;;;;;;5581101;25;20519;-77
2024/04/18 06:49:59;;;;;;;10.87;9.93;;;;;;;;;;5582836;25;20465;-78
2024/04/18 06:52:29;;;;;;;10.37;9.47;;;;;;;;;;5589653;25;20450;-79
2024/04/18 06:54:57;;;;;;;11.10;9.40;;;;;;;;;;5583134;25;20455;-79
2024/04/18 06:57:25;;;;;;;10.10;9.23;;;;;;;;;;5567309;25;20467;-79
2024/04/18 06:59:53;;;;;;;11.00;9.80;;;;;;;;;;5563790;25;20467;-79
2024/04/18 07:02:21;;;;;;;10.07;9.07;;;;;;;;;;5573694;25;20988;-78
2024/04/18 07:04:49;;;;;;;14.40;10.33;;;;;;;;;;5585515;25;20526;-77
2024/04/18 07:07:17;;;;;;;12.20;11.00;;;;;;;;;;5591872;25;20518;-81
2024/04/18 07:09:48;;;;;;;10.77;9.80;;;;;;;;;;5585268;25;21384;-82
2024/04/18 07:12:16;;;;;;;10.30;9.30;;;;;;;;;;5576458;25;20936;-82
2024/04/18 07:14:44;;;;;;;11.47;10.37;;;;;;;;;;5597982;25;20462;-81
2024/04/18 07:17:13;;;;;;;12.53;10.60;;;;;;;;;;5573331;25;20444;-83
2024/04/18 07:19:42;;;;;;;11.93;10.60;;;;;;;;;;5575495;25;20459;-84
2024/04/18 07:22:10;;;;;;;12.50;10.10;;;;;;;;;;5580794;25;20525;-82
2024/04/18 07:24:42;;;;;;;11.53;9.13;;;;;;;;;;5586894;25;20975;-82
2024/04/18 07:27:13;;;;;;;11.83;10.83;;;;;;;;;;5578945;25;20516;-83
2024/04/18 07:29:41;;;;;;;11.27;9.97;;;;;;;;;;5577902;25;20504;-83
2024/04/18 07:32:09;;;;;;;10.67;9.53;;;;;;;;;;5583288;25;20475;-82
2024/04/18 07:34:37;;;;;;;10.00;9.23;;;;;;;;;;5592177;25;20524;-82
2024/04/18 07:37:05;;;;;;;11.00;9.90;;;;;;;;;;5577921;25;20505;-81
2024/04/18 07:39:33;;;;;;;11.07;10.00;;;;;;;;;;5585506;25;20512;-81
2024/04/18 07:41:59;;;;;;;9.97;9.17;;;;;;;;;;5582836;25;20471;-82
2024/04/18 07:44:29;;;;;;;11.37;9.47;;;;;;;;;;5581458;25;20524;-82
2024/04/18 07:46:57;;;;;;;10.70;9.70;;;;;;;;;;5586860;25;20262;-82
2024/04/18 07:49:25;;;;;;;9.90;9.10;;;;;;;;;;5580170;25;20520;-84
2024/04/18 07:51:53;;;;;;;11.13;10.20;;;;;;;;;;5587288;25;20460;-83
2024/04/18 07:54:22;;;;;;;10.53;9.63;;;;;;;;;;5594875;25;20518;-83
2024/04/18 07:56:50;;;;;;;10.23;9.43;;;;;;;;;;5594036;25;20527;-83
2024/04/18 07:59:18;;;;;;;11.57;10.50;;;;;;;;;;5597763;25;20516;-82
2024/04/18 08:01:49;;;;;;;11.47;10.37;;;;;;;;;;5572080;25;20467;-83
2024/04/18 08:04:17;;;;;;;10.67;9.70;;;;;;;;;;5596956;25;20458;-80
2024/04/18 08:06:45;;;;;;;13.27;10.60;;;;;;;;;;5592366;25;20511;-81
2024/04/18 08:09:13;;;;;;;12.13;10.70;;;;;;;;;;5584942;25;20515;-82
2024/04/18 08:11:41;;;;;;;10.20;9.37;;;;;;;;;;5586529;25;20450;-82
2024/04/18 08:14:09;;;;;;;11.20;9.80;;;;;;;;;;5588850;25;20451;-81
2024/04/18 08:16:37;;;;;;;11.93;10.77;;;;;;;;;;5584681;25;20464;-80
2024/04/18 08:19:07;;;;;;;10.60;9.70;;;;;;;;;;5584856;25;20459;-82
2024/04/18 08:21:36;;;;;;;10.63;9.83;;;;;;;;;;5577013;25;20520;-80
2024/04/18 08:24:04;;;;;;;11.03;10.13;;;;;;;;;;5584211;25;20520;-82
2024/04/18 08:26:32;;;;;;;10.73;9.90;;;;;;;;;;5589588;25;20466;-83
2024/04/18 08:29:00;;;;;;;11.33;10.27;;;;;;;;;;5582260;25;20475;-81
2024/04/18 08:31:28;;;;;;;10.93;9.97;;;;;;;;;;5575414;25;20463;-82
2024/04/18 08:33:57;;;;;;;10.90;10.10;;;;;;;;;;5572524;25;20550;-82
2024/04/18 08:36:28;;;;;;;10.73;9.87;;;;;;;;;;5573430;25;20550;-81
2024/04/18 08:38:53;;;;;;;13.67;10.97;;;;;;;;;;5576036;25;20504;-82
2024/04/18 08:41:22;;;;;;;11.57;10.57;;;;;;;;;;5595969;25;21235;-82
2024/04/18 08:43:50;;;;;;;13.20;11.90;;;;;;;;;;5589425;25;20234;-83
2024/04/18 08:46:18;;;;;;;15.57;14.17;;;;;;;;;;5581833;25;20514;-83
2024/04/18 08:48:47;;;;;;;15.33;14.00;;;;;;;;;;5569284;25;20909;-84
2024/04/18 08:51:15;;;;;;;13.77;12.57;;;;;;;;;;5583584;25;20524;-83
2024/04/18 08:53:45;;;;;;;13.27;12.07;;;;;;;;;;5593359;25;21147;-83
2024/04/18 08:56:15;;;;;;;12.87;11.97;;;;;;;;;;5587905;25;20454;-83
2024/04/18 08:58:43;;;;;;;10.97;10.10;;;;;;;;;;5577475;25;20447;-83
2024/04/18 09:01:09;;;;;;;11.10;9.70;;;;;;;;;;5572612;25;20465;-82
2024/04/18 09:03:37;;;;;;;10.70;8.63;;;;;;;;;;5575844;25;20523;-81
2024/04/18 09:06:06;;;;;;;11.23;10.43;;;;;;;;;;5589881;25;20686;-83
2024/04/18 09:08:34;;;;;;;10.60;9.50;;;;;;;;;;5587983;25;20463;-80
2024/04/18 09:11:06;;;;;;;8.43;7.70;;;;;;;;;;5577976;25;20512;-80
2024/04/18 09:13:34;;;;;;;8.60;7.77;;;;;;;;;;5587944;25;20497;-79
2024/04/18 09:16:02;;;;;;;10.47;9.60;;;;;;;;;;5587854;25;20458;-81
2024/04/18 09:18:34;;;;;;;7.47;6.87;;;;;;;;;;5591911;25;20454;-83
2024/04/18 09:21:02;;;;;;;9.20;8.50;;;;;;;;;;5585666;25;20520;-84
2024/04/18 09:23:32;;;;;;;8.93;8.00;;;;;;;;;;5584409;25;20846;-82
2024/04/18 09:26:00;;;;;;;8.33;7.57;;;;;;;;;;5564005;25;20473;-81
2024/04/18 09:28:31;;;;;;;7.93;7.33;;;;;;;;;;5580269;25;20458;-82
2024/04/18 09:31:00;;;;;;;7.93;7.13;;;;;;;;;;5582030;25;20514;-81
2024/04/18 09:33:28;;;;;;;6.80;6.30;;;;;;;;;;5578866;25;20464;-80
2024/04/18 09:35:58;;;;;;;7.60;7.10;;;;;;;;;;5597786;25;20525;-79
2024/04/18 09:38:27;;;;;;;7.60;6.90;;;;;;;;;;5577034;25;20511;-82
2024/04/18 09:40:59;;;;;;;10.53;6.80;;;;;;;;;;5584675;25;20938;-82
2024/04/18 09:43:33;;;;;;;7.20;6.70;;;;;;;;;;5586739;25;20591;-82
2024/04/18 09:46:04;;;;;;;6.90;6.50;;;;;;;;;;5581374;25;20503;-81
2024/04/18 09:48:33;;;;;;;6.90;6.40;;;;;;;;;;5582240;25;20537;-81
2024/04/18 09:51:01;;;;;;;7.07;6.57;;;;;;;;;;5577613;25;20471;-82
2024/04/18 09:53:31;;;;;;;6.57;6.10;;;;;;;;;;5570690;25;20463;-83
2024/04/18 09:56:01;;;;;;;6.20;5.90;;;;;;;;;;5580401;25;21028;-83
2024/04/18 09:58:33;;;;;;;7.37;6.53;;;;;;;;;;5587136;25;20471;-82
2024/04/18 10:01:01;;;;;;;8.73;7.07;;;;;;;;;;5582137;25;21061;-83
2024/04/18 10:03:30;;;;;;;6.77;6.37;;;;;;;;;;5580392;25;20478;-81
2024/04/18 10:06:00;;;;;;;6.33;5.83;;;;;;;;;;5577456;25;20521;-81
2024/04/18 10:08:30;;;;;;;6.13;5.80;;;;;;;;;;5586265;25;20462;-80
2024/04/18 10:10:59;;;;;;;5.90;5.50;;;;;;;;;;5581909;25;20466;-81
2024/04/18 10:13:27;;;;;;;5.40;5.00;;;;;;;;;;5584972;25;20470;-81
2024/04/18 10:16:08;;;;;;;6.77;5.93;;;;;;;;;;5564799;25;21605;-80
2024/04/18 10:18:38;;;;;;;7.07;5.20;;;;;;;;;;5576999;25;20454;-81
2024/04/18 10:21:08;;;;;;;6.20;5.60;;;;;;;;;;5588047;25;20545;-81
2024/04/18 10:23:36;;;;;;;5.60;5.13;;;;;;;;;;5586823;25;20522;-81
2024/04/18 10:26:02;;;;;;;5.63;5.23;;;;;;;;;;5572761;25;20472;-82
2024/04/18 10:28:30;;;;;;;6.07;5.47;;;;;;;;;;5584378;25;20526;-81
2024/04/18 10:31:02;;;;;;;5.97;5.57;;;;;;;;;;5588034;25;20238;-83
2024/04/18 10:33:35;;;;;;;6.33;5.47;;;;;;;;;;5587449;25;20463;-81
2024/04/18 10:36:03;;;;;;;6.57;6.03;;;;;;;;;;5579346;25;20463;-81
2024/04/18 10:38:33;;;;;;;6.03;5.53;;;;;;;;;;5577220;25;20522;-80
2024/04/18 10:41:04;;;;;;;7.03;6.63;;;;;;;;;;5588469;25;20506;-82
2024/04/18 10:43:31;;;;;;;5.40;5.00;;;;;;;;;;5573688;25;20456;-81
2024/04/18 10:46:00;;;;;;;6.60;6.00;;;;;;;;;;5587870;25;20456;-81
2024/04/18 10:48:28;;;;;;;6.40;6.00;;;;;;;;;;5569887;25;20928;-80
2024/04/18 10:50:56;;;;;;;7.20;6.60;;;;;;;;;;5584659;25;20518;-82
2024/04/18 10:53:24;;;;;;;6.03;5.70;;;;;;;;;;5590921;25;20458;-83
2024/04/18 10:55:53;;;;;;;6.67;5.83;;;;;;;;;;5588229;25;20467;-84
2024/04/18 10:58:21;;;;;;;6.90;6.40;;;;;;;;;;5581778;25;20518;-82
2024/04/18 11:00:49;;;;;;;6.90;6.27;;;;;;;;;;5580071;25;20591;-83
2024/04/18 11:03:17;;;;;;;6.20;5.70;;;;;;;;;;5586713;25;20465;-83
2024/04/18 11:05:46;;;;;;;6.53;6.13;;;;;;;;;;5587492;25;20515;-82
2024/04/18 11:08:14;;;;;;;6.30;5.80;;;;;;;;;;5587703;25;20462;-82
2024/04/18 11:10:42;;;;;;;5.40;4.90;;;;;;;;;;5590767;25;20552;-82
2024/04/18 11:13:10;;;;;;;6.53;6.03;;;;;;;;;;5598704;25;20521;-82
2024/04/18 11:15:39;;;;;;;6.33;5.83;;;;;;;;;;5576552;25;20838;-82
2024/04/18 11:18:07;;;;;;;6.40;5.80;;;;;;;;;;5579213;25;20463;-80
2024/04/18 11:20:36;;;;;;;7.23;6.70;;;;;;;;;;5582390;25;20454;-83
2024/04/18 11:23:05;;;;;;;5.57;5.27;;;;;;;;;;5595903;25;20459;-81
2024/04/18 11:25:37;;;;;;;6.70;6.30;;;;;;;;;;5597303;25;20560;-83
2024/04/18 11:28:06;;;;;;;6.07;5.67;;;;;;;;;;5582805;25;20466;-82
2024/04/18 11:30:35;;;;;;;6.70;6.07;;;;;;;;;;5585315;25;20462;-80
2024/04/18 11:33:03;;;;;;;6.50;6.00;;;;;;;;;;5574399;25;20524;-81
2024/04/18 11:35:31;;;;;;;6.17;5.63;;;;;;;;;;5583844;25;20478;-81
2024/04/18 11:38:02;;;;;;;6.43;5.83;;;;;;;;;;5600362;25;21123;-82
2024/04/18 11:40:30;;;;;;;5.90;5.50;;;;;;;;;;5593601;25;20474;-81
2024/04/18 11:43:01;;;;;;;8.23;5.60;;;;;;;;;;5578434;25;20452;-81
2024/04/18 11:45:29;;;;;;;6.60;6.00;;;;;;;;;;5597709;25;21342;-79
2024/04/18 11:47:55;;;;;;;6.47;5.97;;;;;;;;;;5577972;25;20898;-78
2024/04/18 11:50:25;;;;;;;6.27;5.77;;;;;;;;;;5586156;25;20507;-76
2024/04/18 11:52:53;;;;;;;7.27;6.57;;;;;;;;;;5567761;25;20254;-78
2024/04/18 11:55:21;;;;;;;7.20;6.50;;;;;;;;;;5574594;25;20452;-76
2024/04/18 11:57:49;;;;;;;6.13;5.70;;;;;;;;;;5577795;25;20479;-77
2024/04/18 12:00:19;;;;;;;6.47;5.87;;;;;;;;;;5560393;25;20571;-77
2024/04/18 12:02:47;;;;;;;5.97;5.60;;;;;;;;;;5583979;25;20509;-80
2024/04/18 12:05:15;;;;;;;6.20;5.90;;;;;;;;;;5584907;25;21119;-78
2024/04/18 12:07:43;;;;;;;6.17;5.70;;;;;;;;;;5584735;25;20455;-79
2024/04/18 12:10:11;;;;;;;6.70;6.20;;;;;;;;;;5569223;25;20467;-78
2024/04/18 12:12:40;;;;;;;5.73;5.40;;;;;;;;;;5597709;25;20512;-78
2024/04/18 12:15:09;;;;;;;6.17;5.70;;;;;;;;;;5584140;25;20508;-78
2024/04/18 12:17:40;;;;;;;6.03;5.43;;;;;;;;;;5578142;25;20458;-78
2024/04/18 12:20:09;;;;;;;7.53;6.93;;;;;;;;;;5603009;25;20450;-79
2024/04/18 12:22:38;;;;;;;5.67;5.27;;;;;;;;;;5595410;25;20559;-78
2024/04/18 12:25:06;;;;;;;6.60;6.20;;;;;;;;;;5568487;25;20478;-79
2024/04/18 12:27:34;;;;;;;6.00;5.60;;;;;;;;;;5578349;25;20472;-79
2024/04/18 12:30:02;;;;;;;6.00;5.70;;;;;;;;;;5586986;25;20498;-77
2024/04/18 12:32:28;;;;;;;6.67;6.27;;;;;;;;;;5588894;25;21056;-79
2024/04/18 12:34:59;;;;;;;5.60;5.20;;;;;;;;;;5574207;25;20520;-77
2024/04/18 12:37:24;;;;;;;6.13;5.83;;;;;;;;;;5582897;25;20273;-78
2024/04/18 12:39:52;;;;;;;7.50;7.00;;;;;;;;;;5578900;25;20468;-78
2024/04/18 12:42:21;;;;;;;7.20;6.50;;;;;;;;;;5577652;25;20274;-79
2024/04/18 12:44:49;;;;;;;6.10;5.73;;;;;;;;;;5575081;25;20467;-79
2024/04/18 12:47:17;;;;;;;6.63;6.00;;;;;;;;;;5600736;25;20461;-78
2024/04/18 12:49:46;;;;;;;6.70;5.83;;;;;;;;;;5585734;25;20452;-77
2024/04/18 12:52:17;;;;;;;5.77;5.40;;;;;;;;;;5580276;25;20509;-77
2024/04/18 12:54:45;;;;;;;7.90;6.17;;;;;;;;;;5590655;25;20527;-78
2024/04/18 12:57:13;;;;;;;5.97;5.60;;;;;;;;;;5584460;25;20460;-77
2024/04/18 12:59:41;;;;;;;5.23;4.83;;;;;;;;;;5579472;25;20450;-77
2024/04/18 13:02:11;;;;;;;5.90;5.50;;;;;;;;;;5580291;25;20607;-77
2024/04/18 13:04:39;;;;;;;6.23;5.77;;;;;;;;;;5594833;25;20509;-76
2024/04/18 13:07:08;;;;;;;5.77;5.47;;;;;;;;;;5584974;25;20533;-77
2024/04/18 13:09:38;;;;;;;7.70;7.20;;;;;;;;;;5591449;25;20577;-78
2024/04/18 13:12:07;;;;;;;6.47;6.00;;;;;;;;;;5584272;25;20512;-78
2024/04/18 13:14:32;;;;;;;5.60;5.17;;;;;;;;;;5592151;25;20523;-80
2024/04/18 13:17:00;;;;;;;5.67;5.27;;;;;;;;;;5589242;25;20471;-78
2024/04/18 13:19:28;;;;;;;6.40;5.90;;;;;;;;;;5562030;25;20227;-78
2024/04/18 13:21:56;;;;;;;6.00;5.70;;;;;;;;;;5581643;25;21134;-78
2024/04/18 13:24:25;;;;;;;5.67;5.37;;;;;;;;;;5578058;25;20550;-78
2024/04/18 13:26:55;;;;;;;5.80;5.50;;;;;;;;;;5575191;25;21183;-78
2024/04/18 13:29:25;;;;;;;6.27;5.83;;;;;;;;;;5598718;25;20458;-78
2024/04/18 13:31:53;;;;;;;6.47;6.07;;;;;;;;;;5562802;25;20458;-78
2024/04/18 13:34:25;;;;;;;5.57;5.07;;;;;;;;;;5577835;25;20571;-78
2024/04/18 13:36:54;;;;;;;6.27;5.90;;;;;;;;;;5589680;25;20890;-78
2024/04/18 13:39:22;;;;;;;6.43;6.13;;;;;;;;;;5597923;25;20511;-78
2024/04/18 13:41:50;;;;;;;6.37;6.07;;;;;;;;;;5597084;25;20831;-76
2024/04/18 13:44:21;;;;;;;5.67;5.30;;;;;;;;;;5586380;25;20518;-77
2024/04/18 13:46:49;;;;;;;5.50;5.20;;;;;;;;;;5587842;25;20530;-77
2024/04/18 13:49:14;;;;;;;6.03;5.53;;;;;;;;;;5600047;25;20466;-78
2024/04/18 13:51:42;;;;;;;5.70;5.40;;;;;;;;;;5598842;25;20504;-78
2024/04/18 13:54:11;;;;;;;5.93;5.53;;;;;;;;;;5592549;25;20222;-79
2024/04/18 13:56:39;;;;;;;6.47;5.70;;;;;;;;;;5601590;25;20512;-78
2024/04/18 13:59:07;;;;;;;6.00;5.60;;;;;;;;;;5592665;25;21070;-78
2024/04/18 14:01:38;;;;;;;6.03;5.63;;;;;;;;;;5589487;25;20523;-76
2024/04/18 14:04:06;;;;;;;6.63;6.13;;;;;;;;;;5599667;25;20473;-77
2024/04/18 14:06:35;;;;;;;6.70;6.20;;;;;;;;;;5567253;25;20462;-77
2024/04/18 14:09:00;;;;;;;6.23;5.93;;;;;;;;;;5575228;25;20445;-78
2024/04/18 14:11:29;;;;;;;7.50;5.87;;;;;;;;;;5582740;25;20470;-78
2024/04/18 14:13:57;;;;;;;6.20;5.80;;;;;;;;;;5570340;25;20239;-77
2024/04/18 14:19:16;;;;;;;6.03;5.73;;;;;;;;;;5553814;25;20616;-79
2024/04/18 14:21:44;;;;;;;6.00;5.60;;;;;;;;;;5594707;25;20452;-79
2024/04/18 14:24:13;;;;;;;5.60;5.30;;;;;;;;;;5597437;25;20506;-79
2024/04/18 14:26:41;;;;;;;6.20;5.80;;;;;;;;;;5581609;25;20737;-78
2024/04/18 14:29:09;;;;;;;5.83;5.53;;;;;;;;;;5597594;25;20508;-76
2024/04/18 14:31:37;;;;;;;5.90;5.43;;;;;;;;;;5584175;25;20465;-78
2024/04/18 14:34:05;;;;;;;7.53;6.30;;;;;;;;;;5573546;25;20475;-79
2024/04/18 14:36:36;;;;;;;5.60;5.30;;;;;;;;;;5593507;25;20472;-78
2024/04/18 14:39:04;;;;;;;6.40;6.00;;;;;;;;;;5597464;25;21069;-80
2024/04/18 14:41:32;;;;;;;6.90;6.17;;;;;;;;;;5582243;25;20517;-79
2024/04/18 14:44:00;;;;;;;5.43;5.10;;;;;;;;;;5585292;25;20519;-78
2024/04/18 14:46:32;;;;;;;6.00;5.70;;;;;;;;;;5602879;25;20462;-80
2024/04/18 14:49:03;;;;;;;6.03;5.63;;;;;;;;;;5584957;25;20463;-79